Latest Weather Observations for Tindal

IDD60801

Issued at 7:51 pm CST Wednesday 2 September 2026 (issued every 10 minutes, with the page automatically refreshed every 10 minutes)

About weather observations | Map of weather stations | Latest weather observations for NT | Other Formats
Station Details ID: 014932 Name: TINDAL RAAF Lat: -14.52 Lon: 132.38 Height: 133.6 m
Data from the previous 72 hours. | See also: Recent months at Tindal
Date/Time
CST
Temp
°C
App
Temp
°C
Dew
Point
°C
Rel
Hum
%
Delta-T
°C
Wind Press
QNH
hPa
Press
MSL
hPa
Rain since
9am
mm
Dir  Spd
km/h
Gust
km/h
Spd
kts
Gust
kts
02/07:31pm 26.6 24.6 15.6 50 6.7 SE 20 35 11 19 1016.2 1015.3 0.0
02/07:30pm 26.7 24.4 15.7 51 6.7 SE 22 37 12 20 1016.2 1015.3 0.0
02/07:21pm 27.0 23.6 15.7 50 6.9 ESE 28 41 15 22 1016.0 1015.1 0.0
02/07:00pm 28.5 27.3 11.6 35 9.8 E 9 11 5 6 1015.1 1014.3 0.0
02/06:30pm 29.8 28.5 11.3 32 10.7 E 9 13 5 7 1014.8 1014.0 0.0
02/06:00pm 30.9 29.2 11.3 30 11.4 E 11 15 6 8 1014.5 1013.7 0.0
02/05:30pm 31.4 30.1 11.2 29 11.8 ENE 9 15 5 8 1014.1 1013.3 0.0
02/05:00pm 31.7 29.7 11.5 29 11.8 ENE 13 19 7 10 1013.9 1013.1 0.0
02/04:30pm 31.6 29.2 11.4 29 11.8 ENE 15 22 8 12 1014.0 1013.2 0.0
02/04:00pm 31.7 28.9 11.5 29 11.8 ENE 17 24 9 13 1014.0 1013.2 0.0
02/03:30pm 31.2 29.4 12.1 31 11.3 E 13 19 7 10 1014.3 1013.5 0.0
02/03:00pm 31.6 29.9 12.4 31 11.4 ESE 13 22 7 12 1014.6 1013.8 0.0
02/02:30pm 31.3 29.6 12.6 31 11.1 ENE 13 22 7 12 1015.2 1014.4 0.0
02/02:00pm 31.3 28.3 12.6 31 11.1 ESE 20 33 11 18 1015.8 1014.9 0.0
02/01:30pm 31.0 28.5 12.4 32 11.0 ESE 17 28 9 15 1016.2 1015.3 0.0
02/01:00pm 29.8 26.5 12.7 35 10.1 E 22 35 12 19 1016.6 1015.7 0.0
02/12:30pm 30.1 27.1 13.8 37 9.8 E 22 33 12 18 1017.5 1016.6 0.0
02/12:00pm 28.9 25.7 14.3 40 8.8 ESE 24 35 13 19 1018.2 1017.3 0.0
02/11:30am 29.8 26.8 14.7 39 9.2 ENE 24 39 13 21 1018.9 1018.1 0.0
02/11:00am 29.0 26.0 14.8 42 8.7 ESE 24 44 13 24 1019.3 1018.5 0.0
02/10:30am 27.3 24.6 14.7 46 7.6 E 22 33 12 18 1019.7 1018.9 0.0
02/10:00am 26.4 24.3 14.8 49 7.0 E 19 30 10 16 1019.9 1019.1 0.0
02/09:30am 25.1 23.1 15.4 55 5.9 E 20 30 11 16 1020.1 1019.3 0.0
02/09:00am 24.3 23.1 17.1 64 4.5 E 19 26 10 14 1020.1 1019.3 0.0
02/08:30am 22.4 21.5 14.8 62 4.5 ESE 13 17 7 9 1020.1 1019.3 0.0
02/08:00am 20.5 19.7 13.9 66 3.8 SE 11 17 6 9 1019.6 1018.8 0.0
02/07:30am 18.8 19.1 13.4 71 3.1 ESE 4 7 2 4 1019.1 1018.3 0.0
02/07:00am 16.9 16.5 13.0 78 2.2 SSE 7 7 4 4 1018.7 1017.9 0.0
02/06:30am 16.6 16.1 12.6 77 2.2 SSE 7 9 4 5 1018.5 1017.7 0.0
02/06:00am 17.1 16.3 12.8 76 2.4 SSE 9 9 5 5 1018.1 1017.2 0.0
02/05:30am 17.4 16.6 12.9 75 2.5 SE 9 11 5 6 1017.7 1016.8 0.0
02/05:00am 17.7 17.3 13.0 74 2.6 SE 7 9 4 5 1017.3 1016.4 0.0
02/04:30am 17.7 16.9 12.8 73 2.7 SSE 9 9 5 5 1017.2 1016.3 0.0
02/04:00am 18.7 17.9 12.9 69 3.3 SSE 9 9 5 5 1017.1 1016.2 0.0
02/03:30am 19.4 19.0 12.9 66 3.7 SSE 7 11 4 6 1017.1 1016.2 0.0
02/03:00am 18.9 18.2 13.1 69 3.3 SE 9 9 5 5 1017.1 1016.2 0.0
02/02:30am 19.5 18.7 13.0 66 3.7 SE 9 9 5 5 1017.2 1016.3 0.0
02/02:00am 21.1 20.6 12.8 59 4.7 SE 7 9 4 5 1017.3 1016.4 0.0
02/01:30am 22.6 21.8 12.8 54 5.6 E 9 13 5 7 1017.5 1016.6 0.0
02/01:00am 23.1 22.2 12.7 52 6.0 ENE 9 13 5 7 1017.6 1016.7 0.0
02/12:30am 23.9 22.3 12.8 49 6.4 E 13 19 7 10 1017.7 1016.8 0.0
02/12:00am 24.5 22.4 12.5 47 6.9 E 15 19 8 10 1017.8 1016.9 0.0
 
Date/Time
CST
Temp
°C
App
Temp
°C
Dew
Point
°C
Rel
Hum
%
Delta-T
°C
Wind Press
QNH
hPa
Press
MSL
hPa
Rain since
9am
mm
Dir  Spd
km/h
Gust
km/h
Spd
kts
Gust
kts
01/11:30pm 24.8 23.1 12.4 46 7.1 E 13 20 7 11 1017.7 1016.8 0.0
01/11:00pm 24.5 22.6 11.8 45 7.2 E 13 17 7 9 1017.7 1016.8 0.0
01/10:30pm 24.8 22.7 11.0 42 7.8 E 13 20 7 11 1017.6 1016.7 0.0
01/10:00pm 25.6 22.4 9.8 37 8.8 E 17 22 9 12 1017.5 1016.6 0.0
01/09:30pm 21.1 20.2 11.2 53 5.5 SE 7 9 4 5 1017.3 1016.4 0.0
01/09:00pm 22.3 21.2 10.5 47 6.5 SE 7 7 4 4 1017.0 1016.1 0.0
01/08:30pm 22.8 21.7 10.6 46 6.8 SE 7 7 4 4 1016.7 1015.8 0.0
01/08:00pm 24.6 23.3 10.1 40 8.0 SE 7 9 4 5 1016.2 1015.3 0.0
01/07:30pm 25.2 23.5 9.9 38 8.5 SE 9 9 5 5 1015.8 1014.9 0.0
01/07:00pm 27.2 25.3 9.1 32 10.0 SE 9 11 5 6 1015.5 1014.7 0.0
01/06:30pm 29.3 26.1 8.4 27 11.5 SE 15 20 8 11 1015.2 1014.4 0.0
01/06:00pm 30.3 27.9 8.7 26 12.0 ESE 11 17 6 9 1014.9 1014.1 0.0
01/05:30pm 30.5 26.9 8.3 25 12.3 SE 17 24 9 13 1014.9 1014.1 0.0
01/05:00pm 30.7 26.4 7.8 24 12.6 ESE 20 30 11 16 1014.8 1014.0 0.0
01/04:30pm 32.1 28.1 8.4 23 13.3 SE 19 26 10 14 1014.6 1013.8 0.0
01/04:00pm 32.3 28.4 8.5 23 13.4 SE 19 30 10 16 1014.7 1013.9 0.0
01/03:30pm 32.5 27.9 8.0 22 13.6 SSE 22 37 12 20 1014.9 1014.1 0.0
01/03:00pm 31.0 26.2 7.5 23 12.9 ESE 22 32 12 17 1015.5 1014.7 0.0
01/02:30pm 31.4 27.4 9.0 25 12.6 ESE 20 30 11 16 1016.1 1015.2 0.0
01/02:00pm 31.8 26.8 8.1 23 13.2 ESE 24 33 13 18 1016.7 1015.8 0.0
01/01:30pm 31.5 27.0 8.5 24 12.8 SE 22 37 12 20 1017.2 1016.3 0.0
01/01:00pm 31.9 27.3 8.2 23 13.2 E 22 35 12 19 1017.7 1016.8 0.0
01/12:30pm 31.2 27.2 10.5 28 11.9 ESE 22 33 12 18 1018.4 1017.6 0.0
01/12:00pm 30.3 26.1 9.8 28 11.6 E 22 39 12 21 1019.1 1018.3 0.0
01/11:30am 30.1 26.1 9.1 27 11.7 E 20 30 11 16 1019.8 1019.0 0.0
01/11:00am 30.3 27.1 11.3 31 11.0 ESE 19 28 10 15 1020.3 1019.5 0.0
01/10:30am 27.7 26.4 13.6 42 8.4 ENE 13 28 7 15 1020.9 1020.1 0.0
01/10:00am 27.0 25.2 14.4 46 7.6 E 17 24 9 13 1021.1 1020.3 0.0
01/09:30am 26.2 25.6 15.6 52 6.5 ENE 13 20 7 11 1021.1 1020.3 0.0
01/09:00am 24.8 24.7 17.0 62 4.8 NE 13 17 7 9 1020.9 1020.3 0.0
01/08:30am 23.1 24.1 16.9 68 3.8 E 7 9 4 5 1020.8 1020.2 0.0
01/08:00am 21.8 22.1 16.1 70 3.5 E 9 13 5 7 1020.7 1020.1 0.0
01/07:30am 20.0 20.7 15.6 76 2.6 ENE 6 7 3 4 1020.4 1019.8 0.0
01/07:00am 18.7 18.7 15.2 80 2.1 E 9 11 5 6 1020.2 1019.6 0.0
01/06:30am 18.3 18.2 15.0 81 1.9 ESE 9 11 5 6 1019.9 1019.3 0.0
01/06:00am 19.0 20.3 15.1 78 2.3 ESE 2 9 1 5 1019.4 1018.8 0.0
01/05:30am 19.6 19.4 14.8 74 2.8 ESE 9 13 5 7 1019.3 1018.7 0.0
01/05:00am 19.3 18.2 15.2 77 2.4 SE 15 17 8 9 1018.5 1017.9 0.0
01/04:30am 18.9 19.2 15.0 78 2.3 S 7 9 4 5 1017.7 1017.1 0.0
01/04:00am 19.1 19.1 15.2 78 2.3 SE 9 13 5 7 1017.8 1017.2 0.0
01/03:30am 18.8 17.8 14.5 76 2.5 SSE 13 17 7 9 1017.6 1017.0 0.0
01/03:00am 19.7 19.9 14.7 73 2.9 SSE 7 9 4 5 1017.5 1016.9 0.0
01/02:30am 20.4 20.7 14.5 69 3.5 ESE 6 9 3 5 1017.6 1017.0 0.0
01/02:00am 20.3 20.4 14.4 69 3.5 ESE 7 9 4 5 1017.6 1017.0 0.0
01/01:30am 20.8 20.5 14.5 67 3.7 SE 9 11 5 6 1017.9 1017.3 0.0
01/01:00am 21.6 21.2 14.0 62 4.4 SE 9 11 5 6 1018.1 1017.5 0.0
01/12:30am 22.9 23.1 14.7 60 4.9 ESE 7 9 4 5 1018.3 1017.7 0.0
01/12:00am 22.6 21.1 13.1 55 5.5 SSE 13 15 7 8 1018.5 1017.9 0.0
 
Date/Time
CST
Temp
°C
App
Temp
°C
Dew
Point
°C
Rel
Hum
%
Delta-T
°C
Wind Press
QNH
hPa
Press
MSL
hPa
Rain since
9am
mm
Dir  Spd
km/h
Gust
km/h
Spd
kts
Gust
kts
31/11:30pm 24.7 23.3 13.3 49 6.7 E 13 19 7 10 1018.2 1017.6 0.0
31/11:00pm 25.1 23.5 12.7 46 7.2 E 13 20 7 11 1018.1 1017.5 0.0
31/10:30pm 23.9 21.6 10.6 43 7.4 ESE 13 15 7 8 1018.0 1017.4 0.0
31/10:00pm 21.1 21.5 11.4 54 5.4 CALM 0 11 0 6 1017.7 1017.1 0.0
31/09:30pm 21.9 21.3 11.6 52 5.8 SE 6 7 3 4 1017.5 1016.9 0.0
31/09:00pm 22.8 21.5 11.2 48 6.5 SSE 9 11 5 6 1017.3 1016.7 0.0
31/08:30pm 23.2 22.3 11.3 47 6.7 SE 7 9 4 5 1017.0 1016.4 0.0
31/08:00pm 24.7 23.9 10.9 42 7.8 SSE 6 7 3 4 1016.6 1016.0 0.0
31/07:30pm 26.3 25.3 10.9 38 8.7 SSE 7 7 4 4 1016.2 1015.6 0.0
31/07:00pm 27.8 26.2 10.1 33 10.0 SE 9 11 5 6 1015.9 1015.2 0.0
31/06:30pm 29.5 27.4 9.6 29 11.2 SE 11 15 6 8 1015.6 1015.0 0.0
31/06:00pm 31.1 28.5 9.3 26 12.3 SE 13 17 7 9 1015.2 1014.6 0.0
31/05:30pm 31.7 28.0 9.3 25 12.7 SE 19 24 10 13 1014.9 1014.3 0.0
31/05:00pm 32.2 28.2 9.1 24 13.1 SE 20 37 11 20 1014.9 1014.3 0.0
31/04:30pm 32.5 29.8 10.5 26 12.7 E 15 28 8 15 1014.9 1014.3 0.0
31/04:00pm 32.5 29.7 9.9 25 13.0 ESE 15 24 8 13 1015.1 1014.5 0.0
31/03:30pm 32.4 28.6 9.9 25 12.9 SE 20 30 11 16 1015.4 1014.8 0.0
31/03:00pm 32.2 28.4 9.7 25 12.8 SE 20 28 11 15 1015.9 1015.2 0.0
31/02:30pm 32.6 29.0 10.0 25 13.0 ESE 19 35 10 19 1016.4 1015.8 0.0
31/02:00pm 31.9 27.8 10.0 26 12.6 E 22 33 12 18 1017.0 1016.4 0.0
31/01:30pm 31.7 27.0 9.3 25 12.7 SE 24 35 13 19 1017.5 1016.9 0.0
31/01:00pm 31.4 27.7 10.2 27 12.2 ESE 20 32 11 17 1018.0 1017.4 0.0
31/12:46pm 32.1 27.8 10.8 27 12.4 E 24 39 13 21 1018.2 1017.6 0.0
31/12:31pm 31.2 25.9 10.0 27 12.1 E 28 46 15 25 1018.5 1017.9 0.0
31/12:30pm 31.0 26.1 9.8 27 12.0 E 26 46 14 25 1018.6 1018.0 0.0
31/12:19pm 31.1 26.2 9.9 27 12.1 ESE 26 37 14 20 1018.8 1018.2 0.0
31/12:02pm 30.5 25.8 9.4 27 11.9 E 24 48 13 26 1019.1 1018.5 0.0
31/12:00pm 30.7 26.1 9.6 27 11.9 E 24 35 13 19 1019.2 1018.6 0.0
31/11:30am 29.6 24.8 10.2 30 11.0 ESE 26 41 14 22 1019.8 1019.2 0.0
31/11:00am 29.8 24.9 9.9 29 11.3 ESE 26 37 14 20 1020.2 1019.6 0.0
31/10:30am 28.9 23.5 9.6 30 10.8 E 28 39 15 21 1020.5 1019.9 0.0
31/10:06am 28.7 23.8 9.9 31 10.6 E 26 37 14 20 1020.5 1019.9 0.0
31/10:00am 28.6 23.7 11.2 34 10.0 E 28 41 15 22 1020.6 1020.0 0.0
31/09:56am 28.5 24.2 10.7 33 10.2 ESE 24 41 13 22 1020.6 1020.0 0.0
31/09:30am 26.4 25.2 13.9 46 7.4 ENE 13 19 7 10 1020.5 1019.9 0.0
31/09:00am 24.9 25.6 15.5 56 5.7 SE 6 17 3 9 1020.4 1019.8 0.0
31/08:30am 22.5 23.8 17.6 74 3.0 ESE 7 11 4 6 1020.4 1019.8 0.0
31/08:00am 20.6 21.7 17.0 80 2.2 SE 7 9 4 5 1020.3 1019.7 0.0
31/07:30am 18.5 19.0 15.0 80 2.0 SSE 6 7 3 4 1020.1 1019.5 0.0
31/07:00am 17.3 17.6 14.4 83 1.7 SE 6 7 3 4 1019.8 1019.2 0.0
31/06:30am 17.3 17.4 14.0 81 1.9 SE 6 7 3 4 1019.3 1018.7 0.0
31/06:00am 17.7 16.5 12.8 73 2.7 SSE 11 13 6 7 1018.9 1018.3 0.0
31/05:30am 18.0 17.5 12.7 71 3.0 SE 7 9 4 5 1018.3 1017.7 0.0
31/05:00am 18.2 17.2 12.4 69 3.2 SE 9 11 5 6 1018.0 1017.4 0.0
31/04:30am 18.1 16.7 12.1 68 3.3 SE 11 13 6 7 1017.9 1017.3 0.0
31/04:00am 18.3 17.1 11.6 65 3.7 SE 9 11 5 6 1017.8 1017.2 0.0
31/03:30am 18.7 17.4 11.3 62 4.1 SE 9 9 5 5 1017.8 1017.2 0.0
31/03:00am 20.0 18.7 11.2 57 4.8 SE 9 11 5 6 1017.8 1017.2 0.0
31/02:30am 21.3 19.5 10.8 51 5.8 E 11 15 6 8 1017.9 1017.3 0.0
31/02:00am 21.5 19.9 10.3 49 6.1 E 9 13 5 7 1018.0 1017.4 0.0
31/01:30am 21.1 19.5 10.3 50 5.9 ESE 9 13 5 7 1018.3 1017.7 0.0
31/01:00am 20.0 18.4 10.1 53 5.4 SE 9 11 5 6 1018.5 1017.9 0.0
31/12:30am 20.0 18.7 10.1 53 5.3 SE 7 9 4 5 1018.6 1018.0 0.0
31/12:00am 20.9 19.5 9.5 48 6.1 SE 7 9 4 5 1018.7 1018.1 0.0
 
Date/Time
CST
Temp
°C
App
Temp
°C
Dew
Point
°C
Rel
Hum
%
Delta-T
°C
Wind Press
QNH
hPa
Press
MSL
hPa
Rain since
9am
mm
Dir  Spd
km/h
Gust
km/h
Spd
kts
Gust
kts
30/11:30pm 20.7 18.9 9.6 49 6.0 SE 9 13 5 7 1018.6 1018.0 0.0
30/11:00pm 21.4 19.3 9.6 47 6.4 SSE 11 13 6 7 1018.2 1017.6 0.0
30/10:30pm 22.0 19.8 9.5 45 6.8 SE 11 13 6 7 1017.9 1017.3 0.0
30/10:00pm 22.5 20.4 9.6 44 7.0 SE 11 13 6 7 1017.7 1017.1 0.0
30/09:30pm 21.5 20.1 10.9 51 5.9 SSE 9 9 5 5 1017.2 1016.6 0.0
30/09:00pm 22.3 21.2 10.8 48 6.4 SSE 7 9 4 5 1017.1 1016.5 0.0
30/08:30pm 23.6 22.4 10.3 43 7.4 SE 7 9 4 5 1016.6 1016.0 0.0
30/08:00pm 24.6 23.3 10.1 40 8.0 SE 7 9 4 5 1016.2 1015.6 0.0

Other formats

Comma delimited format used in spreadsheet applications
http://www.bom.gov.au/fwo/IDD60801/IDD60801.94131.axf

JavaScript Object Notation format (JSON) in row-major order
http://www.bom.gov.au/fwo/IDD60801/IDD60801.94131.json

Data quality

Most of these data are generated automatically and are frequently updated. Quality checks on data are not normally performed. It is possible for incorrect values to appear. Refer to information at About Latest Weather Observations and please check the disclaimer before using these data.